sensor_id;sensor_type;location;lat;lon;timestamp;P1;durP1;ratioP1;P2;durP2;ratioP2
62915;SDS011;49010;51.230;-2.306;2022-09-24T00:00:23;7.35;;;4.95;;
62915;SDS011;49010;51.230;-2.306;2022-09-24T00:04:05;5.88;;;4.70;;
62915;SDS011;49010;51.230;-2.306;2022-09-24T00:07:50;7.30;;;5.22;;
62915;SDS011;49010;51.230;-2.306;2022-09-24T00:11:31;7.68;;;5.60;;
62915;SDS011;49010;51.230;-2.306;2022-09-24T00:15:13;8.05;;;4.32;;
62915;SDS011;49010;51.230;-2.306;2022-09-24T00:18:55;7.55;;;4.72;;
62915;SDS011;49010;51.230;-2.306;2022-09-24T00:22:39;8.82;;;5.93;;
62915;SDS011;49010;51.230;-2.306;2022-09-24T00:26:21;6.47;;;4.57;;
62915;SDS011;49010;51.230;-2.306;2022-09-24T00:30:22;6.45;;;4.72;;
62915;SDS011;49010;51.230;-2.306;2022-09-24T00:34:04;6.00;;;4.45;;
62915;SDS011;49010;51.230;-2.306;2022-09-24T00:37:46;6.05;;;4.22;;
62915;SDS011;49010;51.230;-2.306;2022-09-24T00:41:29;6.57;;;4.03;;
62915;SDS011;49010;51.230;-2.306;2022-09-24T00:45:16;7.00;;;4.82;;
62915;SDS011;49010;51.230;-2.306;2022-09-24T00:49:16;7.78;;;3.95;;
62915;SDS011;49010;51.230;-2.306;2022-09-24T00:53:01;6.85;;;4.65;;
62915;SDS011;49010;51.230;-2.306;2022-09-24T01:00:29;7.13;;;5.05;;
62915;SDS011;49010;51.230;-2.306;2022-09-24T01:04:12;6.30;;;4.53;;
62915;SDS011;49010;51.230;-2.306;2022-09-24T01:07:55;7.18;;;4.57;;
62915;SDS011;49010;51.230;-2.306;2022-09-24T01:11:46;6.50;;;4.35;;
62915;SDS011;49010;51.230;-2.306;2022-09-24T01:15:41;6.55;;;4.53;;
62915;SDS011;49010;51.230;-2.306;2022-09-24T01:23:41;8.02;;;4.20;;
62915;SDS011;49010;51.230;-2.306;2022-09-24T01:27:44;7.07;;;4.22;;
62915;SDS011;49010;51.230;-2.306;2022-09-24T01:31:46;5.47;;;3.97;;
62915;SDS011;49010;51.230;-2.306;2022-09-24T01:39:20;7.25;;;4.78;;
62915;SDS011;49010;51.230;-2.306;2022-09-24T01:43:03;5.40;;;4.47;;
62915;SDS011;49010;51.230;-2.306;2022-09-24T01:46:47;7.20;;;4.70;;
62915;SDS011;49010;51.230;-2.306;2022-09-24T01:50:32;8.48;;;4.53;;
62915;SDS011;49010;51.230;-2.306;2022-09-24T01:54:30;5.47;;;4.25;;
62915;SDS011;49010;51.230;-2.306;2022-09-24T01:58:17;6.82;;;4.18;;
62915;SDS011;49010;51.230;-2.306;2022-09-24T02:06:10;7.22;;;4.65;;
62915;SDS011;49010;51.230;-2.306;2022-09-24T02:10:03;6.80;;;3.60;;
62915;SDS011;49010;51.230;-2.306;2022-09-24T02:18:02;5.65;;;3.78;;
62915;SDS011;49010;51.230;-2.306;2022-09-24T02:21:48;5.47;;;3.22;;
62915;SDS011;49010;51.230;-2.306;2022-09-24T02:25:36;4.63;;;3.40;;
62915;SDS011;49010;51.230;-2.306;2022-09-24T02:29:30;6.80;;;4.07;;
62915;SDS011;49010;51.230;-2.306;2022-09-24T02:33:12;6.45;;;3.60;;
62915;SDS011;49010;51.230;-2.306;2022-09-24T02:37:14;5.90;;;3.80;;
62915;SDS011;49010;51.230;-2.306;2022-09-24T02:40:56;6.63;;;3.17;;
62915;SDS011;49010;51.230;-2.306;2022-09-24T02:44:39;6.03;;;3.95;;
62915;SDS011;49010;51.230;-2.306;2022-09-24T02:48:20;4.65;;;3.10;;
62915;SDS011;49010;51.230;-2.306;2022-09-24T02:52:02;5.10;;;3.53;;
62915;SDS011;49010;51.230;-2.306;2022-09-24T02:55:44;4.70;;;3.58;;
62915;SDS011;49010;51.230;-2.306;2022-09-24T02:59:26;5.95;;;4.03;;
62915;SDS011;49010;51.230;-2.306;2022-09-24T03:03:08;3.90;;;2.90;;
62915;SDS011;49010;51.230;-2.306;2022-09-24T03:06:50;5.10;;;3.28;;
62915;SDS011;49010;51.230;-2.306;2022-09-24T03:10:32;5.90;;;3.13;;
62915;SDS011;49010;51.230;-2.306;2022-09-24T03:14:15;5.72;;;2.67;;
62915;SDS011;49010;51.230;-2.306;2022-09-24T03:17:56;3.50;;;2.53;;
62915;SDS011;49010;51.230;-2.306;2022-09-24T03:21:38;5.13;;;2.58;;
62915;SDS011;49010;51.230;-2.306;2022-09-24T03:25:20;4.43;;;2.60;;
62915;SDS011;49010;51.230;-2.306;2022-09-24T03:29:02;4.22;;;2.72;;
62915;SDS011;49010;51.230;-2.306;2022-09-24T03:32:44;3.90;;;2.40;;
62915;SDS011;49010;51.230;-2.306;2022-09-24T03:36:28;3.05;;;2.30;;
62915;SDS011;49010;51.230;-2.306;2022-09-24T03:40:10;5.82;;;2.33;;
62915;SDS011;49010;51.230;-2.306;2022-09-24T03:43:52;7.40;;;3.22;;
62915;SDS011;49010;51.230;-2.306;2022-09-24T03:47:34;4.30;;;2.50;;
62915;SDS011;49010;51.230;-2.306;2022-09-24T03:51:16;3.33;;;2.25;;
62915;SDS011;49010;51.230;-2.306;2022-09-24T03:55:00;4.00;;;2.08;;
62915;SDS011;49010;51.230;-2.306;2022-09-24T03:58:42;3.95;;;1.83;;
62915;SDS011;49010;51.230;-2.306;2022-09-24T04:02:28;3.43;;;1.80;;
62915;SDS011;49010;51.230;-2.306;2022-09-24T04:06:11;6.53;;;2.40;;
62915;SDS011;49010;51.230;-2.306;2022-09-24T04:09:53;4.13;;;2.00;;
62915;SDS011;49010;51.230;-2.306;2022-09-24T04:13:34;4.05;;;2.33;;
62915;SDS011;49010;51.230;-2.306;2022-09-24T04:17:16;5.78;;;2.15;;
62915;SDS011;49010;51.230;-2.306;2022-09-24T04:20:58;3.97;;;2.20;;
62915;SDS011;49010;51.230;-2.306;2022-09-24T04:24:40;4.75;;;1.88;;
62915;SDS011;49010;51.230;-2.306;2022-09-24T04:28:22;4.45;;;2.03;;
62915;SDS011;49010;51.230;-2.306;2022-09-24T04:32:05;2.85;;;1.52;;
62915;SDS011;49010;51.230;-2.306;2022-09-24T04:35:47;2.50;;;1.67;;
62915;SDS011;49010;51.230;-2.306;2022-09-24T04:39:28;3.15;;;1.48;;
62915;SDS011;49010;51.230;-2.306;2022-09-24T04:43:10;3.92;;;1.67;;
62915;SDS011;49010;51.230;-2.306;2022-09-24T04:46:53;2.90;;;1.35;;
62915;SDS011;49010;51.230;-2.306;2022-09-24T04:50:36;1.92;;;1.25;;
62915;SDS011;49010;51.230;-2.306;2022-09-24T04:54:25;2.28;;;1.30;;
62915;SDS011;49010;51.230;-2.306;2022-09-24T04:58:10;11.85;;;2.70;;
62915;SDS011;49010;51.230;-2.306;2022-09-24T05:01:51;2.85;;;0.95;;
62915;SDS011;49010;51.230;-2.306;2022-09-24T05:05:34;2.25;;;1.25;;
62915;SDS011;49010;51.230;-2.306;2022-09-24T05:09:16;2.13;;;1.35;;
62915;SDS011;49010;51.230;-2.306;2022-09-24T05:12:59;2.13;;;1.35;;
62915;SDS011;49010;51.230;-2.306;2022-09-24T05:16:41;1.42;;;1.10;;
62915;SDS011;49010;51.230;-2.306;2022-09-24T05:20:23;2.53;;;1.60;;
62915;SDS011;49010;51.230;-2.306;2022-09-24T05:24:05;3.72;;;1.95;;
62915;SDS011;49010;51.230;-2.306;2022-09-24T05:27:48;4.00;;;1.55;;
62915;SDS011;49010;51.230;-2.306;2022-09-24T05:31:31;2.15;;;1.73;;
62915;SDS011;49010;51.230;-2.306;2022-09-24T05:35:13;3.33;;;1.85;;
62915;SDS011;49010;51.230;-2.306;2022-09-24T05:38:55;4.93;;;1.75;;
62915;SDS011;49010;51.230;-2.306;2022-09-24T05:42:36;2.15;;;1.15;;
62915;SDS011;49010;51.230;-2.306;2022-09-24T05:46:19;4.03;;;1.40;;
62915;SDS011;49010;51.230;-2.306;2022-09-24T05:50:01;3.67;;;1.40;;
62915;SDS011;49010;51.230;-2.306;2022-09-24T05:53:43;2.13;;;1.13;;
62915;SDS011;49010;51.230;-2.306;2022-09-24T05:57:25;2.30;;;1.48;;
62915;SDS011;49010;51.230;-2.306;2022-09-24T06:01:07;3.00;;;1.67;;
62915;SDS011;49010;51.230;-2.306;2022-09-24T06:04:49;2.30;;;1.50;;
62915;SDS011;49010;51.230;-2.306;2022-09-24T06:08:31;3.72;;;1.77;;
62915;SDS011;49010;51.230;-2.306;2022-09-24T06:12:15;2.20;;;1.30;;
62915;SDS011;49010;51.230;-2.306;2022-09-24T06:16:01;2.42;;;1.60;;
62915;SDS011;49010;51.230;-2.306;2022-09-24T06:19:44;3.45;;;1.65;;
62915;SDS011;49010;51.230;-2.306;2022-09-24T06:23:27;3.25;;;1.63;;
62915;SDS011;49010;51.230;-2.306;2022-09-24T06:27:10;3.70;;;1.60;;
62915;SDS011;49010;51.230;-2.306;2022-09-24T06:30:52;2.28;;;1.40;;
62915;SDS011;49010;51.230;-2.306;2022-09-24T06:34:34;4.18;;;1.90;;
62915;SDS011;49010;51.230;-2.306;2022-09-24T06:38:16;4.20;;;1.42;;
62915;SDS011;49010;51.230;-2.306;2022-09-24T06:41:59;2.30;;;1.52;;
62915;SDS011;49010;51.230;-2.306;2022-09-24T06:45:41;4.88;;;1.58;;
62915;SDS011;49010;51.230;-2.306;2022-09-24T06:49:23;2.13;;;1.60;;
62915;SDS011;49010;51.230;-2.306;2022-09-24T06:53:07;3.72;;;1.60;;
62915;SDS011;49010;51.230;-2.306;2022-09-24T06:56:50;3.63;;;1.30;;
62915;SDS011;49010;51.230;-2.306;2022-09-24T07:00:33;2.38;;;1.20;;
62915;SDS011;49010;51.230;-2.306;2022-09-24T07:04:16;2.63;;;2.03;;
62915;SDS011;49010;51.230;-2.306;2022-09-24T07:07:58;2.92;;;1.48;;
62915;SDS011;49010;51.230;-2.306;2022-09-24T07:11:40;2.95;;;1.67;;
62915;SDS011;49010;51.230;-2.306;2022-09-24T07:15:22;3.83;;;1.60;;
62915;SDS011;49010;51.230;-2.306;2022-09-24T07:19:04;2.03;;;1.40;;
62915;SDS011;49010;51.230;-2.306;2022-09-24T07:22:46;2.67;;;1.58;;
62915;SDS011;49010;51.230;-2.306;2022-09-24T07:26:28;3.33;;;1.58;;
62915;SDS011;49010;51.230;-2.306;2022-09-24T07:30:10;2.70;;;1.42;;
62915;SDS011;49010;51.230;-2.306;2022-09-24T07:33:53;3.17;;;1.30;;
62915;SDS011;49010;51.230;-2.306;2022-09-24T07:37:34;3.67;;;1.98;;
62915;SDS011;49010;51.230;-2.306;2022-09-24T07:41:16;2.92;;;1.45;;
62915;SDS011;49010;51.230;-2.306;2022-09-24T07:44:59;4.85;;;1.55;;
62915;SDS011;49010;51.230;-2.306;2022-09-24T07:48:41;6.18;;;1.70;;
62915;SDS011;49010;51.230;-2.306;2022-09-24T07:52:23;2.80;;;1.48;;
62915;SDS011;49010;51.230;-2.306;2022-09-24T07:56:04;7.65;;;1.80;;
62915;SDS011;49010;51.230;-2.306;2022-09-24T07:59:46;2.95;;;1.27;;
62915;SDS011;49010;51.230;-2.306;2022-09-24T08:03:28;6.82;;;1.58;;
62915;SDS011;49010;51.230;-2.306;2022-09-24T08:07:11;6.93;;;1.40;;
62915;SDS011;49010;51.230;-2.306;2022-09-24T08:10:53;3.13;;;1.08;;
62915;SDS011;49010;51.230;-2.306;2022-09-24T08:14:35;4.05;;;1.40;;
62915;SDS011;49010;51.230;-2.306;2022-09-24T08:18:17;6.30;;;1.95;;
62915;SDS011;49010;51.230;-2.306;2022-09-24T08:21:59;3.60;;;1.20;;
62915;SDS011;49010;51.230;-2.306;2022-09-24T08:25:41;7.53;;;1.60;;
62915;SDS011;49010;51.230;-2.306;2022-09-24T08:29:23;7.50;;;1.73;;
62915;SDS011;49010;51.230;-2.306;2022-09-24T08:33:04;9.68;;;1.70;;
62915;SDS011;49010;51.230;-2.306;2022-09-24T08:36:46;3.22;;;0.85;;
62915;SDS011;49010;51.230;-2.306;2022-09-24T08:40:32;4.38;;;1.38;;
62915;SDS011;49010;51.230;-2.306;2022-09-24T08:45:02;7.07;;;1.67;;
62915;SDS011;49010;51.230;-2.306;2022-09-24T08:48:44;3.92;;;1.38;;
62915;SDS011;49010;51.230;-2.306;2022-09-24T08:56:41;5.47;;;1.08;;
62915;SDS011;49010;51.230;-2.306;2022-09-24T09:00:26;3.75;;;0.98;;
62915;SDS011;49010;51.230;-2.306;2022-09-24T09:04:33;6.93;;;1.15;;
62915;SDS011;49010;51.230;-2.306;2022-09-24T09:12:48;4.78;;;1.38;;
62915;SDS011;49010;51.230;-2.306;2022-09-24T09:20:30;3.45;;;0.88;;
62915;SDS011;49010;51.230;-2.306;2022-09-24T09:24:17;5.80;;;1.27;;
62915;SDS011;49010;51.230;-2.306;2022-09-24T09:28:20;6.07;;;1.10;;
62915;SDS011;49010;51.230;-2.306;2022-09-24T09:32:24;5.75;;;1.10;;
62915;SDS011;49010;51.230;-2.306;2022-09-24T09:36:17;5.10;;;0.90;;
62915;SDS011;49010;51.230;-2.306;2022-09-24T09:48:07;2.83;;;0.60;;
62915;SDS011;49010;51.230;-2.306;2022-09-24T09:51:55;4.35;;;1.05;;
62915;SDS011;49010;51.230;-2.306;2022-09-24T09:55:40;4.70;;;0.93;;
62915;SDS011;49010;51.230;-2.306;2022-09-24T09:59:29;4.20;;;0.90;;
62915;SDS011;49010;51.230;-2.306;2022-09-24T10:03:25;2.22;;;0.70;;
62915;SDS011;49010;51.230;-2.306;2022-09-24T10:07:11;5.65;;;1.10;;
62915;SDS011;49010;51.230;-2.306;2022-09-24T10:10:56;2.78;;;0.82;;
62915;SDS011;49010;51.230;-2.306;2022-09-24T10:14:40;2.00;;;0.60;;
62915;SDS011;49010;51.230;-2.306;2022-09-24T10:22:20;3.13;;;1.00;;
62915;SDS011;49010;51.230;-2.306;2022-09-24T10:26:05;2.90;;;0.90;;
62915;SDS011;49010;51.230;-2.306;2022-09-24T10:29:50;2.72;;;0.60;;
62915;SDS011;49010;51.230;-2.306;2022-09-24T10:33:53;4.53;;;1.08;;
62915;SDS011;49010;51.230;-2.306;2022-09-24T10:37:37;4.15;;;0.75;;
62915;SDS011;49010;51.230;-2.306;2022-09-24T10:41:33;3.17;;;0.75;;
62915;SDS011;49010;51.230;-2.306;2022-09-24T10:45:14;3.03;;;0.80;;
62915;SDS011;49010;51.230;-2.306;2022-09-24T10:57:12;3.20;;;0.93;;
62915;SDS011;49010;51.230;-2.306;2022-09-24T11:53:06;2.00;;;0.55;;
62915;SDS011;49010;51.230;-2.306;2022-09-24T11:56:57;3.33;;;1.08;;
62915;SDS011;49010;51.230;-2.306;2022-09-24T12:00:48;1.48;;;0.40;;
62915;SDS011;49010;51.230;-2.306;2022-09-24T12:16:19;3.20;;;0.47;;
62915;SDS011;49010;51.230;-2.306;2022-09-24T12:24:16;3.00;;;0.50;;
62915;SDS011;49010;51.230;-2.306;2022-09-24T12:28:04;2.92;;;0.70;;
62915;SDS011;49010;51.230;-2.306;2022-09-24T12:40:21;1.80;;;0.47;;
62915;SDS011;49010;51.230;-2.306;2022-09-24T12:44:17;2.78;;;0.43;;
62915;SDS011;49010;51.230;-2.306;2022-09-24T12:48:12;1.98;;;0.50;;
62915;SDS011;49010;51.230;-2.306;2022-09-24T12:51:57;1.73;;;0.32;;
62915;SDS011;49010;51.230;-2.306;2022-09-24T12:55:43;1.38;;;0.20;;
62915;SDS011;49010;51.230;-2.306;2022-09-24T12:59:26;1.52;;;0.47;;
62915;SDS011;49010;51.230;-2.306;2022-09-24T13:03:29;3.03;;;0.50;;
62915;SDS011;49010;51.230;-2.306;2022-09-24T13:07:36;1.10;;;0.30;;
62915;SDS011;49010;51.230;-2.306;2022-09-24T13:11:23;0.82;;;0.30;;
62915;SDS011;49010;51.230;-2.306;2022-09-24T13:15:30;2.03;;;0.30;;
62915;SDS011;49010;51.230;-2.306;2022-09-24T13:23:26;3.72;;;0.63;;
62915;SDS011;49010;51.230;-2.306;2022-09-24T13:31:07;3.05;;;0.50;;
62915;SDS011;49010;51.230;-2.306;2022-09-24T13:35:02;1.50;;;0.47;;
62915;SDS011;49010;51.230;-2.306;2022-09-24T13:38:57;1.98;;;0.40;;
62915;SDS011;49010;51.230;-2.306;2022-09-24T13:43:12;2.90;;;0.50;;
62915;SDS011;49010;51.230;-2.306;2022-09-24T13:50:55;4.03;;;0.63;;
62915;SDS011;49010;51.230;-2.306;2022-09-24T13:54:42;1.55;;;0.40;;
62915;SDS011;49010;51.230;-2.306;2022-09-24T13:58:32;2.03;;;0.40;;
62915;SDS011;49010;51.230;-2.306;2022-09-24T14:02:23;2.40;;;0.70;;
62915;SDS011;49010;51.230;-2.306;2022-09-24T14:06:10;1.30;;;0.47;;
62915;SDS011;49010;51.230;-2.306;2022-09-24T14:10:01;1.77;;;0.43;;
62915;SDS011;49010;51.230;-2.306;2022-09-24T14:13:53;2.38;;;0.60;;
62915;SDS011;49010;51.230;-2.306;2022-09-24T14:17:36;1.67;;;0.60;;
62915;SDS011;49010;51.230;-2.306;2022-09-24T14:21:25;2.13;;;0.88;;
62915;SDS011;49010;51.230;-2.306;2022-09-24T14:25:16;2.78;;;0.70;;
62915;SDS011;49010;51.230;-2.306;2022-09-24T14:29:10;1.50;;;0.68;;
62915;SDS011;49010;51.230;-2.306;2022-09-24T14:32:57;1.80;;;0.30;;
62915;SDS011;49010;51.230;-2.306;2022-09-24T14:36:41;2.03;;;0.23;;
62915;SDS011;49010;51.230;-2.306;2022-09-24T14:40:23;0.88;;;0.40;;
62915;SDS011;49010;51.230;-2.306;2022-09-24T14:44:20;1.20;;;0.35;;
62915;SDS011;49010;51.230;-2.306;2022-09-24T14:48:16;1.13;;;0.30;;
62915;SDS011;49010;51.230;-2.306;2022-09-24T14:56:18;2.67;;;0.63;;
62915;SDS011;49010;51.230;-2.306;2022-09-24T15:00:00;1.85;;;0.50;;
62915;SDS011;49010;51.230;-2.306;2022-09-24T15:07:29;1.80;;;0.50;;
62915;SDS011;49010;51.230;-2.306;2022-09-24T15:11:15;4.28;;;0.68;;
62915;SDS011;49010;51.230;-2.306;2022-09-24T15:14:59;1.30;;;0.57;;
62915;SDS011;49010;51.230;-2.306;2022-09-24T15:18:42;2.00;;;0.70;;
62915;SDS011;49010;51.230;-2.306;2022-09-24T15:22:24;1.38;;;0.52;;
62915;SDS011;49010;51.230;-2.306;2022-09-24T15:26:08;3.42;;;0.77;;
62915;SDS011;49010;51.230;-2.306;2022-09-24T15:29:50;2.17;;;0.40;;
62915;SDS011;49010;51.230;-2.306;2022-09-24T15:33:32;2.75;;;0.47;;
62915;SDS011;49010;51.230;-2.306;2022-09-24T15:37:15;2.33;;;0.60;;
62915;SDS011;49010;51.230;-2.306;2022-09-24T15:44:41;2.78;;;0.82;;
62915;SDS011;49010;51.230;-2.306;2022-09-24T15:48:25;2.25;;;0.70;;
62915;SDS011;49010;51.230;-2.306;2022-09-24T15:56:05;1.30;;;0.40;;
62915;SDS011;49010;51.230;-2.306;2022-09-24T15:59:48;1.20;;;0.70;;
62915;SDS011;49010;51.230;-2.306;2022-09-24T16:03:30;2.58;;;0.40;;
62915;SDS011;49010;51.230;-2.306;2022-09-24T16:07:13;3.45;;;0.88;;
62915;SDS011;49010;51.230;-2.306;2022-09-24T16:10:55;1.25;;;0.25;;
62915;SDS011;49010;51.230;-2.306;2022-09-24T16:14:37;3.03;;;0.30;;
62915;SDS011;49010;51.230;-2.306;2022-09-24T16:18:18;1.48;;;0.52;;
62915;SDS011;49010;51.230;-2.306;2022-09-24T16:22:02;1.98;;;0.70;;
62915;SDS011;49010;51.230;-2.306;2022-09-24T16:25:54;1.17;;;0.43;;
62915;SDS011;49010;51.230;-2.306;2022-09-24T16:29:37;2.28;;;0.50;;
62915;SDS011;49010;51.230;-2.306;2022-09-24T16:33:19;2.22;;;0.40;;
62915;SDS011;49010;51.230;-2.306;2022-09-24T16:37:01;3.10;;;0.60;;
62915;SDS011;49010;51.230;-2.306;2022-09-24T16:40:43;1.80;;;0.77;;
62915;SDS011;49010;51.230;-2.306;2022-09-24T16:44:25;1.08;;;0.30;;
62915;SDS011;49010;51.230;-2.306;2022-09-24T16:48:08;1.77;;;0.30;;
62915;SDS011;49010;51.230;-2.306;2022-09-24T16:51:51;1.60;;;0.65;;
62915;SDS011;49010;51.230;-2.306;2022-09-24T16:55:33;1.25;;;0.40;;
62915;SDS011;49010;51.230;-2.306;2022-09-24T16:59:15;1.95;;;0.60;;
62915;SDS011;49010;51.230;-2.306;2022-09-24T17:02:57;0.80;;;0.40;;
62915;SDS011;49010;51.230;-2.306;2022-09-24T17:06:40;2.45;;;0.68;;
62915;SDS011;49010;51.230;-2.306;2022-09-24T17:10:24;3.15;;;0.93;;
62915;SDS011;49010;51.230;-2.306;2022-09-24T17:14:09;2.10;;;0.70;;
62915;SDS011;49010;51.230;-2.306;2022-09-24T17:17:54;2.10;;;0.95;;
62915;SDS011;49010;51.230;-2.306;2022-09-24T17:21:37;2.28;;;0.77;;
62915;SDS011;49010;51.230;-2.306;2022-09-24T17:25:21;1.25;;;0.60;;
62915;SDS011;49010;51.230;-2.306;2022-09-24T17:29:02;1.63;;;0.73;;
62915;SDS011;49010;51.230;-2.306;2022-09-24T17:32:44;1.35;;;0.60;;
62915;SDS011;49010;51.230;-2.306;2022-09-24T17:36:26;3.40;;;0.70;;
62915;SDS011;49010;51.230;-2.306;2022-09-24T17:40:09;2.60;;;0.93;;
62915;SDS011;49010;51.230;-2.306;2022-09-24T17:43:51;2.10;;;0.73;;
62915;SDS011;49010;51.230;-2.306;2022-09-24T17:47:33;4.18;;;0.90;;
62915;SDS011;49010;51.230;-2.306;2022-09-24T17:51:35;2.85;;;1.00;;
62915;SDS011;49010;51.230;-2.306;2022-09-24T17:55:17;2.28;;;0.93;;
62915;SDS011;49010;51.230;-2.306;2022-09-24T17:58:59;3.08;;;1.27;;
62915;SDS011;49010;51.230;-2.306;2022-09-24T18:02:41;4.57;;;0.95;;
62915;SDS011;49010;51.230;-2.306;2022-09-24T18:06:23;3.65;;;1.08;;
62915;SDS011;49010;51.230;-2.306;2022-09-24T18:10:13;3.45;;;1.17;;
62915;SDS011;49010;51.230;-2.306;2022-09-24T18:13:58;3.38;;;1.10;;
62915;SDS011;49010;51.230;-2.306;2022-09-24T18:17:41;4.65;;;1.60;;
62915;SDS011;49010;51.230;-2.306;2022-09-24T18:21:23;3.25;;;1.10;;
62915;SDS011;49010;51.230;-2.306;2022-09-24T18:25:05;2.72;;;1.10;;
62915;SDS011;49010;51.230;-2.306;2022-09-24T18:28:48;2.55;;;1.05;;
62915;SDS011;49010;51.230;-2.306;2022-09-24T18:32:35;3.88;;;1.52;;
62915;SDS011;49010;51.230;-2.306;2022-09-24T18:36:19;3.45;;;1.40;;
62915;SDS011;49010;51.230;-2.306;2022-09-24T18:40:03;3.92;;;1.40;;
62915;SDS011;49010;51.230;-2.306;2022-09-24T18:43:46;2.25;;;0.93;;
62915;SDS011;49010;51.230;-2.306;2022-09-24T18:47:28;2.33;;;1.40;;
62915;SDS011;49010;51.230;-2.306;2022-09-24T18:51:17;5.60;;;1.85;;
62915;SDS011;49010;51.230;-2.306;2022-09-24T18:55:05;2.53;;;1.15;;
62915;SDS011;49010;51.230;-2.306;2022-09-24T18:58:47;1.58;;;1.00;;
62915;SDS011;49010;51.230;-2.306;2022-09-24T19:06:16;2.65;;;1.15;;
62915;SDS011;49010;51.230;-2.306;2022-09-24T19:09:58;2.33;;;0.98;;
62915;SDS011;49010;51.230;-2.306;2022-09-24T19:13:40;2.80;;;1.15;;
62915;SDS011;49010;51.230;-2.306;2022-09-24T19:17:23;2.53;;;1.30;;
62915;SDS011;49010;51.230;-2.306;2022-09-24T19:21:06;2.13;;;0.98;;
62915;SDS011;49010;51.230;-2.306;2022-09-24T19:24:50;3.45;;;1.23;;
62915;SDS011;49010;51.230;-2.306;2022-09-24T19:28:32;2.40;;;1.08;;
62915;SDS011;49010;51.230;-2.306;2022-09-24T19:32:15;3.38;;;1.00;;
62915;SDS011;49010;51.230;-2.306;2022-09-24T19:35:58;2.92;;;1.27;;
62915;SDS011;49010;51.230;-2.306;2022-09-24T19:39:44;3.03;;;0.93;;
62915;SDS011;49010;51.230;-2.306;2022-09-24T19:43:26;3.50;;;0.80;;
62915;SDS011;49010;51.230;-2.306;2022-09-24T19:47:09;2.05;;;0.60;;
62915;SDS011;49010;51.230;-2.306;2022-09-24T19:50:52;1.58;;;0.80;;
62915;SDS011;49010;51.230;-2.306;2022-09-24T19:54:34;1.30;;;0.90;;
62915;SDS011;49010;51.230;-2.306;2022-09-24T19:58:16;2.17;;;0.80;;
62915;SDS011;49010;51.230;-2.306;2022-09-24T20:01:58;3.33;;;0.90;;
62915;SDS011;49010;51.230;-2.306;2022-09-24T20:05:40;3.08;;;0.80;;
62915;SDS011;49010;51.230;-2.306;2022-09-24T20:09:23;3.28;;;0.90;;
62915;SDS011;49010;51.230;-2.306;2022-09-24T20:13:05;2.95;;;0.85;;
62915;SDS011;49010;51.230;-2.306;2022-09-24T20:16:50;2.10;;;0.73;;
62915;SDS011;49010;51.230;-2.306;2022-09-24T20:20:32;2.17;;;0.80;;
62915;SDS011;49010;51.230;-2.306;2022-09-24T20:24:14;2.20;;;0.90;;
62915;SDS011;49010;51.230;-2.306;2022-09-24T20:27:56;2.75;;;0.93;;
62915;SDS011;49010;51.230;-2.306;2022-09-24T20:31:41;2.40;;;1.00;;
62915;SDS011;49010;51.230;-2.306;2022-09-24T20:35:31;2.08;;;1.17;;
62915;SDS011;49010;51.230;-2.306;2022-09-24T20:39:13;2.45;;;1.23;;
62915;SDS011;49010;51.230;-2.306;2022-09-24T20:42:55;2.83;;;1.25;;
62915;SDS011;49010;51.230;-2.306;2022-09-24T20:46:37;4.20;;;1.08;;
62915;SDS011;49010;51.230;-2.306;2022-09-24T20:50:19;4.15;;;1.10;;
62915;SDS011;49010;51.230;-2.306;2022-09-24T20:54:01;3.25;;;1.23;;
62915;SDS011;49010;51.230;-2.306;2022-09-24T20:57:43;2.83;;;0.93;;
62915;SDS011;49010;51.230;-2.306;2022-09-24T21:01:25;4.07;;;0.90;;
62915;SDS011;49010;51.230;-2.306;2022-09-24T21:05:07;2.65;;;1.35;;
62915;SDS011;49010;51.230;-2.306;2022-09-24T21:08:51;2.78;;;1.40;;
62915;SDS011;49010;51.230;-2.306;2022-09-24T21:12:33;3.53;;;1.02;;
62915;SDS011;49010;51.230;-2.306;2022-09-24T21:16:15;1.65;;;0.93;;
62915;SDS011;49010;51.230;-2.306;2022-09-24T21:20:00;3.13;;;1.10;;
62915;SDS011;49010;51.230;-2.306;2022-09-24T21:23:43;2.78;;;1.25;;
62915;SDS011;49010;51.230;-2.306;2022-09-24T21:27:26;7.55;;;1.15;;
62915;SDS011;49010;51.230;-2.306;2022-09-24T21:31:08;2.28;;;1.33;;
62915;SDS011;49010;51.230;-2.306;2022-09-24T21:34:50;3.55;;;1.15;;
62915;SDS011;49010;51.230;-2.306;2022-09-24T21:38:32;1.85;;;0.98;;
62915;SDS011;49010;51.230;-2.306;2022-09-24T21:42:14;4.70;;;1.38;;
62915;SDS011;49010;51.230;-2.306;2022-09-24T21:45:59;1.88;;;1.00;;
62915;SDS011;49010;51.230;-2.306;2022-09-24T21:49:42;2.70;;;1.42;;
62915;SDS011;49010;51.230;-2.306;2022-09-24T21:53:24;2.88;;;1.17;;
62915;SDS011;49010;51.230;-2.306;2022-09-24T21:57:06;1.67;;;1.10;;
62915;SDS011;49010;51.230;-2.306;2022-09-24T22:00:47;3.63;;;1.73;;
62915;SDS011;49010;51.230;-2.306;2022-09-24T22:04:29;2.28;;;0.98;;
62915;SDS011;49010;51.230;-2.306;2022-09-24T22:08:14;2.97;;;1.15;;
62915;SDS011;49010;51.230;-2.306;2022-09-24T22:11:57;2.42;;;1.35;;
62915;SDS011;49010;51.230;-2.306;2022-09-24T22:15:40;3.70;;;1.40;;
62915;SDS011;49010;51.230;-2.306;2022-09-24T22:19:23;1.42;;;0.90;;
62915;SDS011;49010;51.230;-2.306;2022-09-24T22:23:05;5.63;;;1.80;;
62915;SDS011;49010;51.230;-2.306;2022-09-24T22:26:47;4.93;;;1.45;;
62915;SDS011;49010;51.230;-2.306;2022-09-24T22:30:29;2.42;;;1.20;;
62915;SDS011;49010;51.230;-2.306;2022-09-24T22:34:11;2.72;;;1.10;;
62915;SDS011;49010;51.230;-2.306;2022-09-24T22:38:12;6.97;;;1.45;;
62915;SDS011;49010;51.230;-2.306;2022-09-24T22:41:55;2.40;;;0.95;;
62915;SDS011;49010;51.230;-2.306;2022-09-24T22:45:37;2.75;;;1.17;;
62915;SDS011;49010;51.230;-2.306;2022-09-24T22:49:19;2.05;;;1.10;;
62915;SDS011;49010;51.230;-2.306;2022-09-24T22:53:02;4.15;;;1.13;;
62915;SDS011;49010;51.230;-2.306;2022-09-24T22:56:44;6.38;;;1.50;;
62915;SDS011;49010;51.230;-2.306;2022-09-24T23:00:26;2.35;;;1.27;;
62915;SDS011;49010;51.230;-2.306;2022-09-24T23:04:08;2.38;;;1.30;;
62915;SDS011;49010;51.230;-2.306;2022-09-24T23:07:54;3.45;;;1.27;;
62915;SDS011;49010;51.230;-2.306;2022-09-24T23:11:36;2.13;;;0.93;;
62915;SDS011;49010;51.230;-2.306;2022-09-24T23:15:17;3.30;;;1.17;;
62915;SDS011;49010;51.230;-2.306;2022-09-24T23:19:00;4.10;;;1.08;;
62915;SDS011;49010;51.230;-2.306;2022-09-24T23:22:44;3.88;;;1.30;;
62915;SDS011;49010;51.230;-2.306;2022-09-24T23:26:26;2.75;;;1.08;;
62915;SDS011;49010;51.230;-2.306;2022-09-24T23:30:09;1.42;;;1.00;;
62915;SDS011;49010;51.230;-2.306;2022-09-24T23:33:52;5.13;;;1.35;;
62915;SDS011;49010;51.230;-2.306;2022-09-24T23:37:35;3.45;;;1.52;;
62915;SDS011;49010;51.230;-2.306;2022-09-24T23:41:17;1.98;;;1.00;;
62915;SDS011;49010;51.230;-2.306;2022-09-24T23:45:00;4.85;;;1.48;;
62915;SDS011;49010;51.230;-2.306;2022-09-24T23:48:42;2.65;;;1.30;;
62915;SDS011;49010;51.230;-2.306;2022-09-24T23:52:24;2.70;;;1.02;;
62915;SDS011;49010;51.230;-2.306;2022-09-24T23:56:06;4.03;;;1.10;;
62915;SDS011;49010;51.230;-2.306;2022-09-24T23:59:49;3.17;;;1.52;;
